Warren, VT

4:20 PM EST on February 14, 2016 (GMT -0500)
APRSWXNET | | Change Station
CLOSE
Current Station
Personal Weather Station
Location: Warren, VT
Elevation: 1788 ft
Nearby Weather Stations

Elev 1788 ft 44.11 °N, 72.80 °W | Updated 34 minutes ago

Clear
Clear
1 °F
Feels Like 1 °F
N
2
Wind Variable Wind from NW
Gusts 6.0 mph

Today
High -- | Low -- °F
--% Chance of Precip.
Yesterday
High -- | Low -- °F
Precip. -- in
Pressure 30.45 in
Visibility 10.0 miles
Clouds Clear
Windchill 1 °F
Dew Point -12 °F
Humidity 53%
Rainfall in
Snow Depth Not available.
6:52 AM 5:18 PM
Waxing Crescent, 45% visible
METAR K6B0 142115Z AUTO 36003KT 10SM CLR M17/M29 A3045 RMK AO2 T11721288
Pressure 30.45 in
Visibility 10.0 miles
Clouds Clear
Windchill 1 °F
Dew Point -12 °F
Humidity 53%
Rainfall in
Snow Depth Not available.
6:52 AM 5:18 PM
Waxing Crescent, 45% visible
METAR K6B0 142115Z AUTO 36003KT 10SM CLR M17/M29 A3045 RMK AO2 T11721288

10-Day Weather Forecast

Almanac

Astronomy

Feb. 14, 2016 Rise Set
Actual Time
Civil Twilight
Nautical Twilight
Astronomical Twilight
Moon
Length of Visible Light
Length of Day
Tomorrow will be .
, % of the Moon is Illuminated

Today's Extremes

State Highs State Lows

Community

WunderPhotos

Upload Photos

1,892,886 photos uploaded!

WunderBlog® & News

Nearby

Air Quality

  Air Quality AQ Index Pollutant
Not available.

Snow Depth

Station Depth Elevation

Earthquake Activity

City Distance Mag. Time & Date
Minimum magnitude displayed is 2.5.

Coastal Water Temperatures

Place Temperature

Stations

Nearby Weather Stations

Station Location Temp. Windchill Dew Point Humidity Wind Precip. Elev Updated Type
                   

Watches & Warnings

There are currently no watches in effect.